Time;durP1;ratioP1;P1;durP2;ratioP2;P2;SDS_P1;SDS_P2;PMS_P1;PMS_P2;Temp;Humidity;BMP_temperature;BMP_pressure;BME280_temperature;BME280_humidity;BME280_pressure;Samples;Min_cycle;Max_cycle;Signal;HPM_P1;HPM_P2
2022/09/18 12:41:43;;;;;;;2.00;0.20;;;;;;;;;;5059565;24;20109;-74
2022/09/18 12:44:13;;;;;;;0.30;0.10;;;;;;;;;;4880546;29;20040;-77
2022/09/18 12:46:42;;;;;;;0.28;0.10;;;;;;;;;;4863596;29;20056;-75
2022/09/18 12:49:23;;;;;;;0.35;0.13;;;;;;;;;;4864496;29;20429;-76
2022/09/18 12:52:10;;;;;;;4.18;0.25;;;;;;;;;;4863997;29;20025;-76
2022/09/18 12:54:55;;;;;;;1.17;0.30;;;;;;;;;;4863567;29;20029;-79
2022/09/18 12:57:37;;;;;;;1.88;0.30;;;;;;;;;;4880465;29;20029;-80
2022/09/18 13:00:13;;;;;;;1.88;0.40;;;;;;;;;;4880184;29;20060;-77
2022/09/18 13:02:39;;;;;;;0.60;0.20;;;;;;;;;;4861500;29;20431;-76
2022/09/18 13:05:14;;;;;;;4.22;0.38;;;;;;;;;;4863243;29;20063;-76
2022/09/18 13:07:43;;;;;;;0.80;0.20;;;;;;;;;;4865902;29;20077;-76
2022/09/18 13:10:15;;;;;;;0.60;0.20;;;;;;;;;;4876046;29;20043;-73
2022/09/18 13:13:00;;;;;;;1.00;0.30;;;;;;;;;;4881692;29;20028;-75
2022/09/18 13:15:28;;;;;;;0.95;0.20;;;;;;;;;;4892831;29;20025;-74
2022/09/18 13:17:58;;;;;;;0.40;0.10;;;;;;;;;;4892988;29;20393;-74
2022/09/18 13:20:31;;;;;;;1.38;0.30;;;;;;;;;;4898471;29;20084;-75
2022/09/18 13:22:58;;;;;;;1.08;0.20;;;;;;;;;;4881305;29;20259;-76
2022/09/18 13:25:32;;;;;;;0.57;0.20;;;;;;;;;;4898323;29;20057;-77
2022/09/18 13:27:59;;;;;;;2.42;0.30;;;;;;;;;;4881538;29;20067;-77
2022/09/18 13:30:27;;;;;;;0.50;0.20;;;;;;;;;;4894236;29;20072;-78
2022/09/18 13:32:55;;;;;;;0.85;0.30;;;;;;;;;;4867744;29;20044;-79
2022/09/18 13:35:23;;;;;;;0.77;0.25;;;;;;;;;;4868635;29;20500;-72
2022/09/18 13:38:02;;;;;;;1.83;0.20;;;;;;;;;;4870941;29;20036;-77
2022/09/18 13:40:36;;;;;;;1.02;0.30;;;;;;;;;;4862780;29;20137;-75
2022/09/18 13:43:21;;;;;;;1.02;0.20;;;;;;;;;;4878898;29;20053;-74
2022/09/18 13:45:48;;;;;;;0.60;0.20;;;;;;;;;;4862556;29;20397;-75
2022/09/18 13:48:22;;;;;;;1.55;0.30;;;;;;;;;;4879359;29;20025;-74
2022/09/18 13:50:51;;;;;;;1.98;0.40;;;;;;;;;;4862572;29;20079;-76
2022/09/18 13:53:32;;;;;;;3.35;0.40;;;;;;;;;;4879032;29;20032;-75
2022/09/18 13:55:58;;;;;;;1.02;0.28;;;;;;;;;;4879324;29;20033;-76
2022/09/18 13:58:31;;;;;;;1.92;0.30;;;;;;;;;;4862541;29;20041;-75
2022/09/18 14:00:58;;;;;;;2.07;0.40;;;;;;;;;;4862458;29;20573;-75
2022/09/18 14:03:24;;;;;;;1.42;0.38;;;;;;;;;;4862520;29;20778;-78
2022/09/18 14:05:51;;;;;;;1.05;0.40;;;;;;;;;;4862234;29;20036;-78
2022/09/18 14:08:21;;;;;;;1.73;0.30;;;;;;;;;;4862485;29;20021;-77
2022/09/18 14:10:47;;;;;;;0.70;0.20;;;;;;;;;;4862553;29;20116;-77
2022/09/18 14:13:16;;;;;;;3.08;0.55;;;;;;;;;;4880324;29;20037;-77
2022/09/18 14:16:01;;;;;;;8.73;2.00;;;;;;;;;;4865971;29;20073;-74
2022/09/18 14:18:28;;;;;;;7.18;1.60;;;;;;;;;;4882650;29;20040;-73
2022/09/18 14:21:18;;;;;;;1.35;0.30;;;;;;;;;;4866025;29;20051;-74
2022/09/18 14:23:46;;;;;;;1.45;0.30;;;;;;;;;;4856554;29;20044;-72
2022/09/18 14:26:36;;;;;;;0.73;0.30;;;;;;;;;;4882709;29;20021;-73
2022/09/18 14:29:05;;;;;;;2.78;0.40;;;;;;;;;;4866067;29;20025;-74
2022/09/18 14:31:37;;;;;;;1.33;0.20;;;;;;;;;;4882350;29;20478;-73
2022/09/18 14:34:06;;;;;;;0.70;0.40;;;;;;;;;;4865906;29;20021;-74
2022/09/18 14:36:46;;;;;;;1.48;0.30;;;;;;;;;;4882435;29;20112;-73
2022/09/18 14:39:23;;;;;;;2.92;0.63;;;;;;;;;;4865589;29;20091;-73
2022/09/18 14:41:50;;;;;;;0.38;0.20;;;;;;;;;;4865393;29;20049;-73
2022/09/18 14:44:16;;;;;;;2.50;0.43;;;;;;;;;;4882250;29;20457;-72
2022/09/18 14:46:56;;;;;;;0.75;0.10;;;;;;;;;;4882313;29;20036;-71
2022/09/18 14:49:27;;;;;;;1.52;0.32;;;;;;;;;;4865545;29;20387;-71
2022/09/18 14:51:53;;;;;;;2.75;0.43;;;;;;;;;;4865449;29;20497;-71
2022/09/18 14:54:23;;;;;;;0.20;0.10;;;;;;;;;;4865472;29;20033;-77
2022/09/18 14:56:50;;;;;;;0.52;0.20;;;;;;;;;;4865228;29;20047;-79
2022/09/18 14:59:18;;;;;;;0.40;0.20;;;;;;;;;;4864956;29;20041;-79
2022/09/18 15:01:44;;;;;;;0.68;0.10;;;;;;;;;;4864969;29;20458;-76
2022/09/18 15:04:15;;;;;;;2.05;0.20;;;;;;;;;;4864740;29;20036;-77
2022/09/18 15:06:46;;;;;;;0.43;0.20;;;;;;;;;;4865073;29;20033;-77
2022/09/18 15:09:14;;;;;;;0.80;0.20;;;;;;;;;;4864663;29;20029;-76
2022/09/18 15:11:42;;;;;;;0.60;0.20;;;;;;;;;;4864968;29;20112;-75
2022/09/18 15:14:22;;;;;;;1.85;0.40;;;;;;;;;;4865112;29;20164;-73
2022/09/18 15:17:06;;;;;;;7.70;0.50;;;;;;;;;;4864999;29;20117;-76
2022/09/18 15:19:33;;;;;;;0.73;0.22;;;;;;;;;;4864917;29;20041;-76
2022/09/18 15:22:00;;;;;;;0.30;0.10;;;;;;;;;;4881735;29;20053;-78
2022/09/18 15:24:26;;;;;;;1.00;0.32;;;;;;;;;;4864370;29;20406;-75
2022/09/18 15:26:54;;;;;;;2.03;0.20;;;;;;;;;;4881646;29;20021;-78
2022/09/18 15:29:23;;;;;;;0.65;0.15;;;;;;;;;;4864953;29;20566;-79
2022/09/18 15:31:50;;;;;;;0.82;0.30;;;;;;;;;;4865175;29;20029;-77
2022/09/18 15:34:18;;;;;;;1.67;0.80;;;;;;;;;;4865153;29;20029;-78
2022/09/18 15:36:45;;;;;;;0.93;0.35;;;;;;;;;;4864928;29;20043;-78
2022/09/18 15:39:27;;;;;;;1.05;0.40;;;;;;;;;;4881695;29;20033;-77
2022/09/18 15:41:53;;;;;;;2.63;0.40;;;;;;;;;;4863564;29;20405;-77
2022/09/18 15:44:29;;;;;;;0.50;0.20;;;;;;;;;;4881305;29;20029;-76
2022/09/18 15:46:55;;;;;;;0.45;0.10;;;;;;;;;;4871873;29;20037;-76
2022/09/18 15:49:28;;;;;;;1.35;0.30;;;;;;;;;;4890596;29;20021;-77
2022/09/18 15:51:54;;;;;;;0.60;0.15;;;;;;;;;;4887861;29;20039;-76
2022/09/18 15:54:20;;;;;;;5.63;2.53;;;;;;;;;;4889768;29;20030;-76
2022/09/18 15:56:51;;;;;;;5.55;2.28;;;;;;;;;;4891030;29;20481;-76
2022/09/18 15:59:37;;;;;;;1.25;0.40;;;;;;;;;;4872164;29;20047;-77
2022/09/18 16:02:21;;;;;;;1.50;0.55;;;;;;;;;;4888723;29;20044;-77
2022/09/18 16:04:47;;;;;;;3.17;1.17;;;;;;;;;;4873889;29;20025;-76
2022/09/18 16:07:20;;;;;;;1.55;0.50;;;;;;;;;;4890620;29;20017;-75
2022/09/18 16:09:48;;;;;;;1.05;0.30;;;;;;;;;;4873976;29;20105;-76
2022/09/18 16:12:29;;;;;;;1.60;0.30;;;;;;;;;;4872327;29;20475;-75
2022/09/18 16:15:10;;;;;;;0.90;0.30;;;;;;;;;;4883971;29;20043;-75
2022/09/18 16:17:46;;;;;;;5.32;0.38;;;;;;;;;;4887626;29;20546;-75
2022/09/18 16:20:22;;;;;;;1.20;0.38;;;;;;;;;;4886701;29;20053;-75
2022/09/18 16:22:49;;;;;;;1.58;0.40;;;;;;;;;;4888443;29;20056;-75
2022/09/18 16:25:28;;;;;;;0.57;0.20;;;;;;;;;;4864569;29;20116;-74
2022/09/18 16:27:55;;;;;;;5.30;0.60;;;;;;;;;;4852876;29;20483;-74
2022/09/18 16:30:22;;;;;;;0.75;0.30;;;;;;;;;;4871318;29;20032;-76
2022/09/18 16:32:48;;;;;;;0.77;0.40;;;;;;;;;;4868802;29;20086;-74
2022/09/18 16:35:15;;;;;;;1.15;0.47;;;;;;;;;;4869130;29;20068;-75
2022/09/18 16:37:42;;;;;;;1.50;0.40;;;;;;;;;;4868444;29;20037;-73
2022/09/18 16:40:20;;;;;;;1.45;0.50;;;;;;;;;;4870381;29;20501;-74
2022/09/18 16:42:46;;;;;;;0.85;0.30;;;;;;;;;;4870135;29;20056;-75
2022/09/18 16:45:14;;;;;;;1.23;0.50;;;;;;;;;;4871779;29;20028;-75
2022/09/18 16:47:43;;;;;;;0.60;0.30;;;;;;;;;;4880198;29;20036;-78
2022/09/18 16:50:09;;;;;;;0.95;0.40;;;;;;;;;;4863473;29;20040;-76
2022/09/18 16:52:35;;;;;;;1.92;0.60;;;;;;;;;;4863276;29;20478;-77
2022/09/18 16:55:02;;;;;;;1.85;0.30;;;;;;;;;;4863312;29;20128;-78
2022/09/18 16:57:28;;;;;;;0.77;0.45;;;;;;;;;;4863351;29;20036;-76
2022/09/18 16:59:58;;;;;;;2.85;0.68;;;;;;;;;;4880040;29;20029;-77
2022/09/18 17:02:24;;;;;;;3.20;0.52;;;;;;;;;;4879935;29;20367;-74
2022/09/18 17:04:51;;;;;;;3.15;0.95;;;;;;;;;;4863283;29;20066;-76
2022/09/18 17:07:17;;;;;;;1.95;0.63;;;;;;;;;;4880158;29;20475;-76
2022/09/18 17:09:43;;;;;;;1.42;0.60;;;;;;;;;;4879234;29;20032;-72
2022/09/18 17:12:09;;;;;;;2.13;0.80;;;;;;;;;;4862754;29;20025;-76
2022/09/18 17:14:35;;;;;;;3.15;1.20;;;;;;;;;;4863049;29;20065;-75
2022/09/18 17:17:03;;;;;;;3.53;0.68;;;;;;;;;;4863093;29;20562;-76
2022/09/18 17:19:29;;;;;;;1.38;0.60;;;;;;;;;;4862883;29;20067;-73
2022/09/18 17:21:55;;;;;;;1.73;0.80;;;;;;;;;;4853997;29;20478;-74
2022/09/18 17:24:24;;;;;;;1.67;0.88;;;;;;;;;;4879391;29;20116;-75
2022/09/18 17:26:52;;;;;;;2.10;1.00;;;;;;;;;;4862930;29;20056;-75
2022/09/18 17:29:19;;;;;;;2.22;0.90;;;;;;;;;;4852923;29;20038;-74
2022/09/18 17:31:45;;;;;;;2.97;1.00;;;;;;;;;;4870038;29;20451;-74
2022/09/18 17:34:11;;;;;;;1.85;0.80;;;;;;;;;;4858757;29;20527;-76
2022/09/18 17:36:40;;;;;;;2.60;1.30;;;;;;;;;;4859453;29;20059;-79
2022/09/18 17:39:06;;;;;;;3.47;0.80;;;;;;;;;;4859893;29;20079;-76
2022/09/18 17:41:33;;;;;;;1.40;0.60;;;;;;;;;;4859987;29;20038;-75
2022/09/18 17:43:59;;;;;;;2.03;0.77;;;;;;;;;;4862270;29;20037;-75
2022/09/18 17:46:25;;;;;;;1.00;0.50;;;;;;;;;;4862349;29;20036;-78
2022/09/18 17:48:58;;;;;;;0.90;0.40;;;;;;;;;;4862595;29;20406;-76
2022/09/18 17:51:25;;;;;;;0.77;0.40;;;;;;;;;;4862601;29;20032;-76
2022/09/18 17:53:56;;;;;;;0.70;0.30;;;;;;;;;;4862291;29;20325;-75
2022/09/18 17:56:28;;;;;;;2.90;1.00;;;;;;;;;;4862486;29;20036;-75
2022/09/18 17:58:56;;;;;;;2.13;1.00;;;;;;;;;;4862502;29;20048;-75
2022/09/18 18:01:22;;;;;;;2.35;0.80;;;;;;;;;;4862461;29;20375;-76
2022/09/18 18:03:48;;;;;;;1.05;0.50;;;;;;;;;;4879442;29;20088;-78
2022/09/18 18:06:15;;;;;;;0.68;0.20;;;;;;;;;;4879154;29;20021;-74
2022/09/18 18:08:41;;;;;;;1.02;0.43;;;;;;;;;;4882977;29;20029;-76
2022/09/18 18:11:09;;;;;;;1.30;0.50;;;;;;;;;;4885743;29;20386;-76
2022/09/18 18:13:36;;;;;;;2.08;0.50;;;;;;;;;;4879661;29;20419;-76
2022/09/18 18:16:09;;;;;;;1.23;0.60;;;;;;;;;;4866627;29;20026;-73
2022/09/18 18:18:36;;;;;;;1.45;0.57;;;;;;;;;;4884481;29;20402;-73
2022/09/18 18:21:02;;;;;;;1.17;0.50;;;;;;;;;;4849397;29;20500;-74
2022/09/18 18:23:29;;;;;;;1.20;0.50;;;;;;;;;;4868327;29;20032;-75
2022/09/18 18:25:55;;;;;;;0.70;0.40;;;;;;;;;;4853407;29;20033;-75
2022/09/18 18:28:24;;;;;;;0.82;0.40;;;;;;;;;;4867232;29;20032;-74
2022/09/18 18:31:01;;;;;;;2.20;0.60;;;;;;;;;;4871534;29;20037;-76
2022/09/18 18:33:28;;;;;;;0.65;0.35;;;;;;;;;;4864432;29;20108;-74
2022/09/18 18:35:54;;;;;;;0.85;0.38;;;;;;;;;;4854905;29;20029;-74
2022/09/18 18:38:20;;;;;;;0.88;0.50;;;;;;;;;;4867114;29;20045;-75
2022/09/18 18:40:46;;;;;;;0.88;0.50;;;;;;;;;;4888121;29;20029;-74
2022/09/18 18:43:14;;;;;;;1.58;0.40;;;;;;;;;;4888412;29;20124;-73
2022/09/18 18:45:51;;;;;;;1.48;0.40;;;;;;;;;;4888162;29;20028;-74
2022/09/18 18:48:17;;;;;;;1.02;0.30;;;;;;;;;;4869813;29;20020;-73
2022/09/18 18:50:43;;;;;;;0.57;0.30;;;;;;;;;;4868550;29;20028;-74
2022/09/18 18:53:10;;;;;;;1.70;0.50;;;;;;;;;;4878524;29;20035;-74
2022/09/18 18:55:36;;;;;;;0.80;0.32;;;;;;;;;;4869640;29;20406;-73
2022/09/18 18:58:02;;;;;;;1.00;0.40;;;;;;;;;;4852421;29;20444;-74
2022/09/18 19:00:28;;;;;;;0.90;0.60;;;;;;;;;;4890087;29;20397;-75
2022/09/18 19:02:54;;;;;;;1.45;0.45;;;;;;;;;;4891642;29;20029;-74
2022/09/18 19:05:29;;;;;;;0.70;0.40;;;;;;;;;;4874757;29;20033;-73
2022/09/18 19:07:55;;;;;;;0.63;0.30;;;;;;;;;;4875748;29;20486;-74
2022/09/18 19:10:24;;;;;;;1.05;0.43;;;;;;;;;;4871671;29;20026;-74
2022/09/18 19:12:58;;;;;;;0.98;0.30;;;;;;;;;;4864862;29;20408;-76
2022/09/18 19:15:25;;;;;;;1.23;0.40;;;;;;;;;;4865063;29;20557;-77
2022/09/18 19:17:51;;;;;;;1.70;0.40;;;;;;;;;;4864579;29;20047;-78
2022/09/18 19:20:20;;;;;;;0.93;0.47;;;;;;;;;;4881631;29;20172;-74
2022/09/18 19:22:55;;;;;;;0.93;0.40;;;;;;;;;;4865061;29;20120;-76
2022/09/18 19:25:25;;;;;;;0.88;0.40;;;;;;;;;;4881436;29;20545;-76
2022/09/18 19:27:55;;;;;;;1.08;0.30;;;;;;;;;;4864784;29;20566;-77
2022/09/18 19:30:22;;;;;;;2.90;0.50;;;;;;;;;;4864616;29;20029;-75
2022/09/18 19:32:48;;;;;;;1.92;0.60;;;;;;;;;;4864874;29;20105;-76
2022/09/18 19:35:14;;;;;;;1.08;0.50;;;;;;;;;;4881420;29;20035;-75
2022/09/18 19:37:41;;;;;;;2.65;0.52;;;;;;;;;;4864711;29;20033;-74
2022/09/18 19:40:12;;;;;;;1.15;0.47;;;;;;;;;;4873381;29;20124;-75
2022/09/18 19:42:38;;;;;;;2.33;0.60;;;;;;;;;;4878625;29;20499;-78
2022/09/18 19:45:05;;;;;;;1.10;0.40;;;;;;;;;;4887930;29;20525;-76
2022/09/18 19:47:34;;;;;;;1.00;0.50;;;;;;;;;;4871887;29;20077;-76
2022/09/18 19:50:01;;;;;;;0.98;0.40;;;;;;;;;;4870211;29;20053;-78
2022/09/18 19:52:28;;;;;;;0.88;0.35;;;;;;;;;;4872766;29;20433;-78
2022/09/18 19:54:55;;;;;;;3.22;0.60;;;;;;;;;;4873577;29;20025;-77
2022/09/18 19:57:22;;;;;;;0.90;0.40;;;;;;;;;;4873100;29;20036;-77
2022/09/18 19:59:53;;;;;;;1.63;0.50;;;;;;;;;;4888834;29;20108;-78
2022/09/18 20:02:19;;;;;;;1.90;0.60;;;;;;;;;;4872887;29;20521;-76
2022/09/18 20:04:45;;;;;;;1.30;0.50;;;;;;;;;;4888697;29;20370;-77
2022/09/18 20:07:11;;;;;;;1.45;0.57;;;;;;;;;;4873603;29;20028;-78
2022/09/18 20:09:39;;;;;;;3.78;0.60;;;;;;;;;;4882918;29;20025;-76
2022/09/18 20:12:05;;;;;;;1.38;0.52;;;;;;;;;;4871360;29;20040;-77
2022/09/18 20:14:31;;;;;;;1.40;0.60;;;;;;;;;;4871714;29;20119;-76
2022/09/18 20:16:57;;;;;;;0.82;0.40;;;;;;;;;;4888678;29;20029;-75
2022/09/18 20:19:24;;;;;;;1.40;0.40;;;;;;;;;;4889288;29;20036;-75
2022/09/18 20:21:51;;;;;;;1.58;0.40;;;;;;;;;;4873712;29;20206;-76
2022/09/18 20:24:17;;;;;;;0.90;0.35;;;;;;;;;;4871110;29;20029;-77
2022/09/18 20:26:43;;;;;;;1.65;0.40;;;;;;;;;;4872923;29;20475;-77
2022/09/18 20:29:13;;;;;;;2.65;0.50;;;;;;;;;;4873012;29;20028;-78
2022/09/18 20:31:39;;;;;;;0.90;0.40;;;;;;;;;;4873290;29;20048;-77
2022/09/18 20:34:06;;;;;;;0.88;0.40;;;;;;;;;;4869386;29;20474;-76
2022/09/18 20:36:32;;;;;;;0.95;0.45;;;;;;;;;;4870090;29;20032;-76
2022/09/18 20:39:00;;;;;;;1.08;0.47;;;;;;;;;;4880437;29;20136;-77
2022/09/18 20:41:28;;;;;;;6.63;0.60;;;;;;;;;;4863026;29;20045;-78
2022/09/18 20:43:55;;;;;;;2.35;0.63;;;;;;;;;;4863046;29;20064;-76
2022/09/18 20:46:21;;;;;;;0.82;0.40;;;;;;;;;;4863201;29;20040;-76
2022/09/18 20:48:53;;;;;;;0.93;0.43;;;;;;;;;;4863285;29;20449;-78
2022/09/18 20:51:23;;;;;;;0.75;0.40;;;;;;;;;;4863421;29;20177;-78
2022/09/18 20:53:49;;;;;;;2.00;0.50;;;;;;;;;;4863368;29;20037;-77
2022/09/18 20:56:20;;;;;;;1.10;0.40;;;;;;;;;;4863293;29;20061;-76
2022/09/18 20:58:53;;;;;;;1.42;0.50;;;;;;;;;;4863111;29;20458;-76
2022/09/18 21:01:23;;;;;;;0.77;0.40;;;;;;;;;;4863195;29;20021;-77
2022/09/18 21:03:55;;;;;;;2.85;0.50;;;;;;;;;;4879938;29;20032;-77
2022/09/18 21:06:22;;;;;;;1.42;0.50;;;;;;;;;;4862833;29;20112;-77
2022/09/18 21:08:49;;;;;;;1.42;0.47;;;;;;;;;;4863078;29;20045;-76
2022/09/18 21:11:17;;;;;;;0.73;0.38;;;;;;;;;;4879764;29;20025;-79
2022/09/18 21:13:46;;;;;;;2.45;0.43;;;;;;;;;;4879724;29;20132;-78
2022/09/18 21:16:13;;;;;;;1.88;0.70;;;;;;;;;;4862647;29;20027;-76
2022/09/18 21:18:40;;;;;;;2.30;0.70;;;;;;;;;;4862881;29;20041;-77
2022/09/18 21:21:08;;;;;;;1.55;0.70;;;;;;;;;;4863000;29;20029;-78
2022/09/18 21:23:52;;;;;;;2.20;0.50;;;;;;;;;;4862656;29;20037;-77
2022/09/18 21:26:22;;;;;;;0.82;0.40;;;;;;;;;;4879404;29;20063;-77
2022/09/18 21:28:55;;;;;;;1.45;0.50;;;;;;;;;;4862839;29;20248;-77
2022/09/18 21:31:22;;;;;;;2.25;0.57;;;;;;;;;;4862646;29;20073;-77
2022/09/18 21:33:51;;;;;;;1.85;0.60;;;;;;;;;;4879634;29;20233;-78
2022/09/18 21:36:19;;;;;;;2.20;0.50;;;;;;;;;;4862682;29;20025;-76
2022/09/18 21:38:47;;;;;;;1.58;0.50;;;;;;;;;;4862486;29;20044;-78
2022/09/18 21:41:13;;;;;;;2.40;0.50;;;;;;;;;;4862636;29;20115;-78
2022/09/18 21:43:41;;;;;;;2.97;0.90;;;;;;;;;;4862576;29;20435;-78
2022/09/18 21:46:11;;;;;;;0.80;0.50;;;;;;;;;;4862597;29;20115;-77
2022/09/18 21:48:38;;;;;;;2.47;0.40;;;;;;;;;;4862472;29;20486;-77
2022/09/18 21:51:05;;;;;;;1.23;0.55;;;;;;;;;;4879453;29;20092;-78
2022/09/18 21:53:32;;;;;;;1.20;0.60;;;;;;;;;;4862597;29;20043;-78
2022/09/18 21:55:59;;;;;;;1.63;0.60;;;;;;;;;;4862477;29;20514;-77
2022/09/18 21:58:25;;;;;;;1.17;0.50;;;;;;;;;;4862294;29;20041;-77
2022/09/18 22:00:51;;;;;;;2.65;0.80;;;;;;;;;;4862418;29;20029;-78
2022/09/18 22:03:17;;;;;;;2.72;0.63;;;;;;;;;;4862613;29;20029;-76
2022/09/18 22:05:45;;;;;;;1.27;0.60;;;;;;;;;;4862720;29;20025;-78
2022/09/18 22:08:11;;;;;;;5.75;0.50;;;;;;;;;;4862346;29;20389;-77
2022/09/18 22:10:37;;;;;;;2.50;0.40;;;;;;;;;;4862407;29;20029;-78
2022/09/18 22:13:03;;;;;;;1.23;0.43;;;;;;;;;;4862398;29;20101;-78
2022/09/18 22:15:29;;;;;;;3.28;0.50;;;;;;;;;;4879247;29;20056;-78
2022/09/18 22:17:55;;;;;;;0.93;0.43;;;;;;;;;;4862138;29;20039;-76
2022/09/18 22:20:21;;;;;;;0.68;0.30;;;;;;;;;;4862426;29;20033;-78
2022/09/18 22:22:48;;;;;;;4.68;0.60;;;;;;;;;;4862191;29;20069;-78
2022/09/18 22:25:14;;;;;;;1.02;0.40;;;;;;;;;;4879080;29;20031;-78
2022/09/18 22:27:40;;;;;;;1.58;0.55;;;;;;;;;;4862445;29;20028;-79
2022/09/18 22:30:08;;;;;;;1.95;0.63;;;;;;;;;;4879044;29;20071;-77
2022/09/18 22:32:34;;;;;;;1.40;0.50;;;;;;;;;;4862370;29;20052;-78
2022/09/18 22:35:01;;;;;;;2.38;0.60;;;;;;;;;;4864362;29;20542;-78
2022/09/18 22:37:27;;;;;;;1.65;0.50;;;;;;;;;;4865591;29;20033;-78
2022/09/18 22:39:54;;;;;;;1.52;0.50;;;;;;;;;;4882362;29;20040;-78
2022/09/18 22:42:20;;;;;;;1.40;0.50;;;;;;;;;;4865573;29;20454;-78
2022/09/18 22:44:46;;;;;;;0.60;0.30;;;;;;;;;;4865400;29;20025;-78
2022/09/18 22:47:13;;;;;;;1.40;0.50;;;;;;;;;;4865667;29;20033;-78
2022/09/18 22:49:39;;;;;;;1.25;0.38;;;;;;;;;;4865416;29;20033;-77
2022/09/18 22:52:06;;;;;;;0.90;0.35;;;;;;;;;;4865339;29;20036;-79
2022/09/18 22:54:32;;;;;;;0.88;0.30;;;;;;;;;;4881979;29;20395;-78
2022/09/18 22:56:58;;;;;;;1.30;0.40;;;;;;;;;;4865517;29;20033;-79
2022/09/18 22:59:27;;;;;;;1.30;0.52;;;;;;;;;;4882286;29;20041;-78
2022/09/18 23:01:55;;;;;;;3.22;0.43;;;;;;;;;;4865315;29;20030;-78
2022/09/18 23:04:22;;;;;;;1.77;0.30;;;;;;;;;;4865292;29;20505;-77
2022/09/18 23:06:49;;;;;;;2.55;0.55;;;;;;;;;;4881866;29;20025;-78
2022/09/18 23:09:17;;;;;;;1.02;0.40;;;;;;;;;;4865253;29;20067;-78
2022/09/18 23:11:44;;;;;;;3.05;0.40;;;;;;;;;;4881961;29;20025;-78
2022/09/18 23:14:15;;;;;;;0.90;0.30;;;;;;;;;;4865097;29;20029;-78
2022/09/18 23:16:42;;;;;;;2.13;0.40;;;;;;;;;;4864892;29;20060;-77
2022/09/18 23:19:12;;;;;;;0.90;0.40;;;;;;;;;;4864957;29;20128;-78
2022/09/18 23:21:39;;;;;;;1.00;0.40;;;;;;;;;;4865097;29;20039;-78
2022/09/18 23:24:07;;;;;;;1.00;0.30;;;;;;;;;;4864998;29;20120;-78
2022/09/18 23:26:34;;;;;;;2.15;0.40;;;;;;;;;;4881822;29;20035;-78
2022/09/18 23:29:00;;;;;;;0.77;0.30;;;;;;;;;;4864724;29;20474;-78
2022/09/18 23:31:31;;;;;;;1.58;0.40;;;;;;;;;;4864828;29;20025;-77
2022/09/18 23:33:58;;;;;;;0.90;0.38;;;;;;;;;;4864788;29;20040;-78
2022/09/18 23:36:29;;;;;;;0.95;0.30;;;;;;;;;;4864734;29;20500;-78
2022/09/18 23:38:56;;;;;;;0.95;0.40;;;;;;;;;;4864764;29;20052;-78
2022/09/18 23:41:23;;;;;;;0.95;0.40;;;;;;;;;;4881021;29;20041;-78
2022/09/18 23:43:50;;;;;;;0.68;0.20;;;;;;;;;;4864780;29;20190;-78
2022/09/18 23:46:17;;;;;;;1.85;0.40;;;;;;;;;;4864348;29;20065;-78
2022/09/18 23:48:43;;;;;;;1.13;0.30;;;;;;;;;;4881124;29;20033;-78
2022/09/18 23:51:12;;;;;;;2.65;0.40;;;;;;;;;;4864385;29;20036;-78
2022/09/18 23:53:40;;;;;;;2.22;0.60;;;;;;;;;;4881219;29;20044;-78
2022/09/18 23:56:08;;;;;;;2.45;0.60;;;;;;;;;;4881170;29;20133;-78
2022/09/18 23:58:34;;;;;;;2.80;0.50;;;;;;;;;;4864265;29;20112;-78
